Aeroporto :
LOGIN :

Iscrizione | Disclaimer

   EN    FR    IT 

 










Sommario :    VFR   VFR Marginale   IFR   IFR Intensivo   IFR Molto Intensivo
Visibilità : 
Base nubi : 
>= 8 km
>= 3000ft
5 / 8 km
1000 / 3000 ft
1500m / 5 km
500 / 1000 ft
800 / 1500m
200 / 500 ft
< 800m
< 200 ft
Simboli :   Temporali  Nebbia  Neve Forte  Precipitazioni Forti  Vento > 20 kt
SIGMETs :   Varie  Temporali  Ghiacco  Turbolenza  Onda orograficha  Ceneri Vulcaniche






- Altitudine del aeroporto : 499 ft
- Codice IATA : TLS


LFBO - Toulouse / Blagnac

ULTIMO METAR :
  • 220430Z AUTO 22003KT CAVOK 01/M00 Q1004 TEMPO BKN008 BECMG 13012KT

METARs OBSOLETI :
  • 220400Z AUTO VRB02KT CAVOK 01/01 Q1004 NOSIG
  • 220330Z AUTO VRB01KT CAVOK 01/00 Q1004 NOSIG
  • 220300Z AUTO 17003KT CAVOK 02/01 Q1004 NOSIG
  • 220230Z AUTO 19004KT CAVOK 01/00 Q1005 NOSIG
  • 220200Z AUTO 21004KT CAVOK 02/01 Q1005 NOSIG

TAF TAF LFBO
Valido dal 22 a 00 ore il 23 a 06 ore UTC


212300Z 2200/2306 16005KT CAVOK
BECMG 2206/2208 13012KT
TEMPO 2206/2208 BKN008
BECMG 2208/2210 13020G30KT
BECMG 2220/2222 13015KT
BECMG 2300/2302 26008KT
TEMPO 2303/2306 4000 SHRA SCT010 BKN040TCU
ATIS : +33 5 62 74 66 36



MetMap, La meteo Aeronautica in un colpo d'occhio ! - Copyright ORBIFLY Dicembre 2007 - Disclaimer

ORBIFLY MET'MAP TEAM :

Programmazione e sviluppo : Alexandra Zaïnal
Concezione e sviluppo : Baudouin d'Aumeries
Co-Programmazione e sviluppo : Marc-Olivier Méhu
Supporto tecnico e logistico : Manuel Goepfert
Aiuto per la traduzione : Arnaldo La Scala

Contatto : metmap@orbifly.com




FONTI E CREDITI :

   NOAA